Time;durP1;ratioP1;P1;durP2;ratioP2;P2;SDS_P1;SDS_P2;PMS_P1;PMS_P2;Temp;Humidity;BMP_temperature;BMP_pressure;BME280_temperature;BME280_humidity;BME280_pressure;Samples;Min_cycle;Max_cycle;Signal;HPM_P1;HPM_P2
2023/10/29 00:00:18;;;;;;;16.53;9.40;;;7.90;99.90;;;;;;4131174;28;20844;-59
2023/10/29 00:02:19;;;;;;;15.40;8.67;;;7.90;99.90;;;;;;4130930;28;20092;-58
2023/10/29 00:04:20;;;;;;;13.23;8.23;;;7.90;99.90;;;;;;4131079;28;20081;-59
2023/10/29 00:06:22;;;;;;;13.93;8.70;;;7.80;99.90;;;;;;4130645;28;20038;-59
2023/10/29 00:08:23;;;;;;;12.93;8.40;;;7.80;99.90;;;;;;4130642;28;20030;-59
2023/10/29 00:10:24;;;;;;;15.93;9.27;;;7.80;99.90;;;;;;4130893;28;20085;-59
2023/10/29 00:12:25;;;;;;;14.37;7.90;;;7.80;99.90;;;;;;4130238;28;20053;-60
2023/10/29 00:14:26;;;;;;;12.90;7.40;;;7.80;99.90;;;;;;4131345;28;20038;-59
2023/10/29 00:16:27;;;;;;;14.23;8.33;;;7.80;99.90;;;;;;4130085;28;20517;-60
2023/10/29 00:18:29;;;;;;;12.30;8.03;;;7.80;99.90;;;;;;4131385;28;20415;-57
2023/10/29 00:20:30;;;;;;;13.63;8.13;;;7.70;99.90;;;;;;4130032;28;20042;-59
2023/10/29 00:22:32;;;;;;;10.93;7.77;;;7.70;99.90;;;;;;4130932;28;20449;-58
2023/10/29 00:24:33;;;;;;;11.70;7.60;;;7.70;99.90;;;;;;4130325;28;20038;-59
2023/10/29 00:26:34;;;;;;;13.13;8.10;;;7.60;99.90;;;;;;4131348;28;20039;-58
2023/10/29 00:28:35;;;;;;;13.80;8.00;;;7.50;99.90;;;;;;4130204;28;20077;-59
2023/10/29 00:30:36;;;;;;;11.03;7.47;;;7.50;99.90;;;;;;4131122;28;20431;-59
2023/10/29 00:32:37;;;;;;;12.97;7.53;;;7.40;99.90;;;;;;4130227;28;20042;-58
2023/10/29 00:34:39;;;;;;;11.47;6.90;;;7.40;99.90;;;;;;4130568;28;20046;-59
2023/10/29 00:36:40;;;;;;;14.20;8.13;;;7.30;99.90;;;;;;4129847;28;20038;-59
2023/10/29 00:38:41;;;;;;;18.13;7.43;;;7.30;99.90;;;;;;4130129;28;20026;-57
2023/10/29 00:40:42;;;;;;;12.33;7.30;;;7.30;99.90;;;;;;4130519;28;20364;-59
2023/10/29 00:42:43;;;;;;;11.97;6.40;;;7.30;99.90;;;;;;4129693;28;20520;-58
2023/10/29 00:44:44;;;;;;;9.97;6.93;;;7.30;99.90;;;;;;4130798;28;20022;-58
2023/10/29 00:46:46;;;;;;;11.13;7.30;;;7.20;99.90;;;;;;4129785;28;20069;-58
2023/10/29 00:48:48;;;;;;;15.57;6.87;;;7.20;99.90;;;;;;4130952;28;21050;-60
2023/10/29 00:50:50;;;;;;;13.20;7.47;;;7.20;99.90;;;;;;4129584;28;20034;-64
2023/10/29 00:52:51;;;;;;;13.27;8.30;;;7.20;99.90;;;;;;4129901;28;20376;-54
2023/10/29 00:54:52;;;;;;;10.77;6.90;;;7.20;99.90;;;;;;4129622;28;20080;-58
2023/10/29 00:56:54;;;;;;;13.57;6.43;;;7.20;99.90;;;;;;4130650;28;20450;-60
2023/10/29 00:58:55;;;;;;;9.13;5.97;;;7.20;99.90;;;;;;4129464;28;20041;-60
2023/10/29 01:00:56;;;;;;;9.37;6.23;;;7.10;99.90;;;;;;4130155;28;20085;-61
2023/10/29 01:02:57;;;;;;;14.10;6.73;;;7.10;99.90;;;;;;4129422;28;20038;-61
2023/10/29 01:04:58;;;;;;;14.53;6.60;;;7.10;99.90;;;;;;4130046;28;20034;-58
2023/10/29 01:06:59;;;;;;;14.07;6.80;;;7.10;99.90;;;;;;4129777;28;20120;-56
2023/10/29 01:09:01;;;;;;;11.53;6.70;;;7.10;99.90;;;;;;4129648;28;20030;-60
2023/10/29 01:11:06;;;;;;;11.50;6.40;;;7.00;99.90;;;;;;4129598;28;20092;-60
2023/10/29 01:13:08;;;;;;;11.20;6.73;;;7.00;99.90;;;;;;4132233;28;20033;-60
2023/10/29 01:15:09;;;;;;;10.43;7.10;;;7.00;99.90;;;;;;4146564;28;20457;-61
2023/10/29 01:17:11;;;;;;;13.27;7.00;;;7.00;99.90;;;;;;4145693;28;20445;-60
2023/10/29 01:19:12;;;;;;;14.43;7.20;;;7.00;99.90;;;;;;4146242;28;20068;-58
2023/10/29 01:21:13;;;;;;;11.23;6.63;;;7.00;99.90;;;;;;4145512;28;20042;-60
2023/10/29 01:23:15;;;;;;;9.37;6.00;;;7.00;99.90;;;;;;4146495;28;20088;-58
2023/10/29 01:25:17;;;;;;;13.67;6.93;;;7.00;99.90;;;;;;4144174;28;20442;-58
2023/10/29 01:27:18;;;;;;;12.97;6.23;;;7.00;99.90;;;;;;4146144;28;20072;-59
2023/10/29 01:29:19;;;;;;;11.80;6.73;;;7.10;99.90;;;;;;4144967;28;20034;-60
2023/10/29 01:31:20;;;;;;;9.90;6.50;;;7.10;99.90;;;;;;4146551;28;20096;-59
2023/10/29 01:33:21;;;;;;;10.20;6.37;;;7.10;99.90;;;;;;4145161;28;20029;-59
2023/10/29 01:35:23;;;;;;;10.10;7.23;;;7.10;99.90;;;;;;4146206;28;20092;-58
2023/10/29 01:37:24;;;;;;;10.87;6.50;;;7.10;99.90;;;;;;4145459;28;20033;-62
2023/10/29 01:39:26;;;;;;;13.70;7.27;;;7.10;99.90;;;;;;4145568;28;20108;-61
2023/10/29 01:41:27;;;;;;;10.80;7.20;;;7.10;99.90;;;;;;4145951;28;20446;-60
2023/10/29 01:43:28;;;;;;;13.27;7.87;;;7.10;99.90;;;;;;4145186;28;20030;-62
2023/10/29 01:45:29;;;;;;;14.03;7.70;;;7.10;99.90;;;;;;4145598;28;20029;-62
2023/10/29 01:47:30;;;;;;;12.60;7.97;;;7.10;99.90;;;;;;4145367;28;20042;-59
2023/10/29 01:49:32;;;;;;;11.47;7.23;;;7.10;99.90;;;;;;4145904;28;20038;-61
2023/10/29 01:51:33;;;;;;;11.57;7.20;;;7.10;99.90;;;;;;4144777;28;20437;-64
2023/10/29 01:53:34;;;;;;;14.60;7.43;;;7.00;99.90;;;;;;4145854;28;20080;-62
2023/10/29 01:55:36;;;;;;;12.57;8.03;;;6.90;99.90;;;;;;4144682;28;20033;-59
2023/10/29 01:57:38;;;;;;;11.27;6.77;;;6.90;99.90;;;;;;4146115;28;20029;-58
2023/10/29 01:59:40;;;;;;;12.00;7.13;;;6.90;99.90;;;;;;4139505;28;20462;-60
2023/10/29 02:01:41;;;;;;;11.97;6.90;;;6.90;99.90;;;;;;4129599;28;20078;-61
2023/10/29 02:03:42;;;;;;;13.87;7.33;;;6.90;99.90;;;;;;4128399;28;20875;-57
2023/10/29 02:05:44;;;;;;;13.40;7.90;;;6.90;99.90;;;;;;4128338;28;20046;-57
2023/10/29 02:07:45;;;;;;;14.90;8.20;;;6.90;99.90;;;;;;4128414;28;20042;-59
2023/10/29 02:09:46;;;;;;;14.30;7.20;;;6.90;99.90;;;;;;4129152;28;20084;-59
2023/10/29 02:11:47;;;;;;;11.13;7.37;;;6.80;99.90;;;;;;4128774;28;20018;-59
2023/10/29 02:13:48;;;;;;;14.17;8.10;;;6.80;99.90;;;;;;4128760;28;20038;-58
2023/10/29 02:15:49;;;;;;;16.13;8.97;;;6.80;99.90;;;;;;4128700;28;20443;-60
2023/10/29 02:17:50;;;;;;;11.70;7.63;;;6.80;99.90;;;;;;4128538;28;20514;-59
2023/10/29 02:19:52;;;;;;;14.23;8.40;;;6.70;99.90;;;;;;4129283;28;20093;-60
2023/10/29 02:21:53;;;;;;;12.87;8.07;;;6.60;99.90;;;;;;4127728;28;20044;-57
2023/10/29 02:23:55;;;;;;;14.30;8.10;;;6.60;99.90;;;;;;4129497;28;20132;-59
2023/10/29 02:25:56;;;;;;;14.67;8.10;;;6.60;99.90;;;;;;4128241;28;20038;-59
2023/10/29 02:27:57;;;;;;;11.97;7.73;;;6.60;99.90;;;;;;4129362;28;20084;-57
2023/10/29 02:29:58;;;;;;;12.23;7.60;;;6.60;99.90;;;;;;4127861;28;20045;-60
2023/10/29 02:31:59;;;;;;;11.00;7.40;;;6.50;99.90;;;;;;4129132;28;20073;-63
2023/10/29 02:34:00;;;;;;;11.43;7.50;;;6.50;99.90;;;;;;4127948;28;20049;-63
2023/10/29 02:36:02;;;;;;;15.90;7.87;;;6.40;99.90;;;;;;4129392;28;20034;-62
2023/10/29 02:38:03;;;;;;;11.43;6.90;;;6.40;99.90;;;;;;4128132;28;20077;-62
2023/10/29 02:40:05;;;;;;;11.77;7.40;;;6.40;99.90;;;;;;4128528;28;20112;-58
2023/10/29 02:42:06;;;;;;;12.20;6.77;;;6.40;99.90;;;;;;4128394;28;20046;-62
2023/10/29 02:44:07;;;;;;;13.27;6.93;;;6.40;99.90;;;;;;4128258;28;20022;-63
2023/10/29 02:46:10;;;;;;;12.90;7.30;;;6.40;99.90;;;;;;4128337;28;20038;-58
2023/10/29 02:48:11;;;;;;;18.23;7.67;;;6.40;99.90;;;;;;4128312;28;20030;-58
2023/10/29 02:50:12;;;;;;;9.07;6.43;;;6.40;99.90;;;;;;4128708;28;20085;-59
2023/10/29 02:52:13;;;;;;;10.23;7.13;;;6.40;99.90;;;;;;4127977;28;20379;-58
2023/10/29 02:54:14;;;;;;;12.07;7.30;;;6.30;99.90;;;;;;4129034;28;20038;-59
2023/10/29 02:56:16;;;;;;;10.97;6.63;;;6.10;99.90;;;;;;4127636;28;20093;-59
2023/10/29 02:58:17;;;;;;;11.27;7.03;;;6.10;99.90;;;;;;4128738;28;20026;-59
2023/10/29 03:00:18;;;;;;;10.40;6.60;;;6.00;99.90;;;;;;4127493;28;20050;-55
2023/10/29 03:02:20;;;;;;;11.73;7.00;;;6.00;99.90;;;;;;4128875;28;20084;-58
2023/10/29 03:04:21;;;;;;;10.23;6.17;;;6.00;99.90;;;;;;4127941;28;20471;-58
2023/10/29 03:06:22;;;;;;;14.83;7.90;;;6.00;99.90;;;;;;4128690;28;20096;-56
2023/10/29 03:08:24;;;;;;;12.40;7.33;;;6.00;99.90;;;;;;4128023;28;20030;-55
2023/10/29 03:10:25;;;;;;;12.73;8.07;;;6.00;99.90;;;;;;4128468;28;20046;-60
2023/10/29 03:12:26;;;;;;;8.90;6.47;;;6.00;99.90;;;;;;4127958;28;20072;-57
2023/10/29 03:14:27;;;;;;;12.83;6.67;;;6.00;99.90;;;;;;4127895;28;20075;-59
2023/10/29 03:16:29;;;;;;;11.57;7.37;;;6.10;99.90;;;;;;4140634;28;20045;-59
2023/10/29 03:18:30;;;;;;;10.33;6.57;;;6.00;99.90;;;;;;4144028;28;20022;-57
2023/10/29 03:20:31;;;;;;;13.57;7.33;;;5.80;99.90;;;;;;4144639;28;20050;-58
2023/10/29 03:22:33;;;;;;;10.57;6.17;;;5.70;99.90;;;;;;4143866;28;20103;-59
2023/10/29 03:24:34;;;;;;;10.67;6.53;;;5.70;99.90;;;;;;4144934;28;20030;-60
2023/10/29 03:26:35;;;;;;;9.80;6.57;;;5.60;99.90;;;;;;4143757;28;20037;-59
2023/10/29 03:28:37;;;;;;;14.03;7.77;;;5.40;99.90;;;;;;4144814;28;20038;-59
2023/10/29 03:30:38;;;;;;;13.47;7.77;;;5.30;99.90;;;;;;4143538;28;20076;-59
2023/10/29 03:32:40;;;;;;;15.67;8.17;;;5.20;99.90;;;;;;4145130;28;20030;-60
2023/10/29 03:34:41;;;;;;;14.87;7.80;;;5.10;99.90;;;;;;4140548;28;20570;-59
2023/10/29 03:36:42;;;;;;;16.73;8.37;;;5.10;99.90;;;;;;4139402;28;20077;-59
2023/10/29 03:38:43;;;;;;;13.13;7.80;;;5.10;99.90;;;;;;4146795;28;20436;-57
2023/10/29 03:40:44;;;;;;;12.10;8.07;;;5.10;99.90;;;;;;4147392;28;20042;-55
2023/10/29 03:42:46;;;;;;;14.53;7.53;;;5.20;99.90;;;;;;4147273;28;20482;-60
2023/10/29 03:44:47;;;;;;;15.07;9.17;;;5.30;99.90;;;;;;4147363;28;20095;-58
2023/10/29 03:46:52;;;;;;;20.30;11.10;;;5.30;99.90;;;;;;4147592;28;20033;-60
2023/10/29 03:48:53;;;;;;;17.03;10.80;;;5.30;99.90;;;;;;4147402;28;20030;-58
2023/10/29 03:50:54;;;;;;;16.97;9.80;;;5.20;99.90;;;;;;4137460;28;20445;-60
2023/10/29 03:52:55;;;;;;;19.03;10.50;;;5.20;99.90;;;;;;4130486;28;20048;-60
2023/10/29 03:54:56;;;;;;;14.83;9.03;;;5.00;99.90;;;;;;4131656;28;20490;-57
2023/10/29 03:56:57;;;;;;;17.57;8.93;;;4.90;99.90;;;;;;4132911;28;20031;-59
2023/10/29 03:58:59;;;;;;;16.67;9.40;;;4.90;99.90;;;;;;4147697;28;20540;-58
2023/10/29 04:01:01;;;;;;;15.07;8.93;;;4.80;99.90;;;;;;4128992;28;20115;-62
2023/10/29 04:03:02;;;;;;;13.27;8.17;;;4.90;99.90;;;;;;4115572;28;20051;-59
2023/10/29 04:05:04;;;;;;;14.67;8.97;;;4.90;99.90;;;;;;4114076;28;20090;-57
2023/10/29 04:07:05;;;;;;;12.53;8.90;;;4.90;99.90;;;;;;4115270;28;20109;-61
2023/10/29 04:09:06;;;;;;;13.20;8.00;;;5.00;99.90;;;;;;4114180;28;20420;-58
2023/10/29 04:11:08;;;;;;;13.27;8.20;;;5.00;99.90;;;;;;4115039;28;20035;-60
2023/10/29 04:13:09;;;;;;;11.60;8.57;;;4.90;99.90;;;;;;4114137;28;20098;-58
2023/10/29 04:15:11;;;;;;;17.03;9.77;;;4.90;99.90;;;;;;4114462;28;20038;-57
2023/10/29 04:17:12;;;;;;;13.27;9.17;;;4.90;99.90;;;;;;4114575;28;20479;-57
2023/10/29 04:19:13;;;;;;;18.13;9.90;;;4.80;99.90;;;;;;4116388;28;20035;-59
2023/10/29 04:21:15;;;;;;;19.87;10.03;;;4.80;99.90;;;;;;4131227;28;20491;-61
2023/10/29 04:23:16;;;;;;;37.77;10.57;;;4.70;99.90;;;;;;4130112;28;20356;-58
2023/10/29 04:25:17;;;;;;;23.50;10.70;;;4.50;99.90;;;;;;4130929;28;20053;-57
2023/10/29 04:27:18;;;;;;;23.73;10.07;;;4.50;99.90;;;;;;4129998;28;20121;-58
2023/10/29 04:29:21;;;;;;;38.23;11.67;;;4.40;99.90;;;;;;4130866;28;20121;-59
2023/10/29 04:31:22;;;;;;;63.03;12.10;;;4.40;99.90;;;;;;4129460;28;20030;-58
2023/10/29 04:33:23;;;;;;;124.23;14.60;;;4.40;99.90;;;;;;4131083;28;20043;-60
2023/10/29 04:35:25;;;;;;;20.03;11.53;;;4.40;99.90;;;;;;4129994;28;20837;-57
2023/10/29 04:37:26;;;;;;;22.07;11.67;;;4.40;99.90;;;;;;4130814;28;20038;-56
2023/10/29 04:39:27;;;;;;;41.97;13.23;;;4.40;99.90;;;;;;4129619;28;20822;-57
2023/10/29 04:41:28;;;;;;;51.77;13.27;;;4.50;99.90;;;;;;4130806;28;20101;-60
2023/10/29 04:43:29;;;;;;;70.60;14.67;;;4.50;99.90;;;;;;4129531;28;20394;-58
2023/10/29 04:45:30;;;;;;;21.13;11.30;;;4.50;99.90;;;;;;4130096;28;20475;-57
2023/10/29 04:47:31;;;;;;;21.57;12.20;;;4.50;99.90;;;;;;4130501;28;20410;-59
2023/10/29 04:49:32;;;;;;;23.97;13.17;;;4.50;99.90;;;;;;4130170;28;20613;-60
2023/10/29 04:51:34;;;;;;;24.97;13.20;;;4.60;99.90;;;;;;4130833;28;20084;-58
2023/10/29 04:53:36;;;;;;;26.57;12.30;;;4.70;99.90;;;;;;4129931;28;20276;-58
2023/10/29 04:55:37;;;;;;;23.73;12.77;;;4.70;99.90;;;;;;4130716;28;20264;-58
2023/10/29 04:57:38;;;;;;;40.50;12.40;;;4.60;99.90;;;;;;4129799;28;20440;-60
2023/10/29 04:59:39;;;;;;;24.63;11.00;;;4.70;99.90;;;;;;4130461;28;20028;-58
2023/10/29 05:01:40;;;;;;;26.03;10.23;;;4.60;99.90;;;;;;4129416;28;20046;-58
2023/10/29 05:03:41;;;;;;;14.00;9.20;;;4.60;99.90;;;;;;4130654;28;20030;-59
2023/10/29 05:05:42;;;;;;;18.80;10.97;;;4.60;99.90;;;;;;4129474;28;20092;-58
2023/10/29 05:07:45;;;;;;;16.13;10.77;;;4.70;99.90;;;;;;4130440;28;20105;-58
2023/10/29 05:09:46;;;;;;;18.03;11.40;;;4.70;99.90;;;;;;4129282;28;20026;-58
2023/10/29 05:11:48;;;;;;;20.13;10.13;;;4.70;99.90;;;;;;4130240;28;20023;-60
2023/10/29 05:13:49;;;;;;;11.63;8.77;;;4.70;99.90;;;;;;4129508;28;20047;-59
2023/10/29 05:15:50;;;;;;;14.33;8.83;;;4.70;99.90;;;;;;4129918;28;20116;-58
2023/10/29 05:17:51;;;;;;;13.20;9.43;;;4.70;99.90;;;;;;4129956;28;20042;-59
2023/10/29 05:19:54;;;;;;;16.50;10.43;;;4.80;99.90;;;;;;4129552;28;20414;-59
2023/10/29 05:21:56;;;;;;;16.23;10.60;;;4.80;99.90;;;;;;4129899;28;20419;-59
2023/10/29 05:23:57;;;;;;;18.10;13.03;;;4.90;99.90;;;;;;4129125;28;20505;-57
2023/10/29 05:25:58;;;;;;;36.50;14.20;;;4.90;99.90;;;;;;4130494;28;20042;-59
2023/10/29 05:27:59;;;;;;;25.43;13.87;;;4.90;99.90;;;;;;4128862;28;20026;-59
2023/10/29 05:30:01;;;;;;;20.73;13.57;;;4.80;99.90;;;;;;4130094;28;20268;-57
2023/10/29 05:32:02;;;;;;;21.17;12.50;;;4.80;99.90;;;;;;4128856;28;20112;-57
2023/10/29 05:34:03;;;;;;;21.80;13.27;;;4.80;99.90;;;;;;4130202;28;20046;-60
2023/10/29 05:36:05;;;;;;;16.87;11.40;;;5.00;99.90;;;;;;4129077;28;20450;-59
2023/10/29 05:38:06;;;;;;;21.00;12.53;;;5.20;99.90;;;;;;4129708;28;20056;-61
2023/10/29 05:40:09;;;;;;;20.97;12.27;;;5.40;99.90;;;;;;4128797;28;20319;-60
2023/10/29 05:42:10;;;;;;;18.20;12.00;;;5.60;99.90;;;;;;4129948;28;20089;-59
2023/10/29 05:44:11;;;;;;;19.37;11.43;;;6.00;99.90;;;;;;4128718;28;20054;-59
2023/10/29 05:46:13;;;;;;;17.33;10.20;;;6.30;99.90;;;;;;4129916;28;20513;-59
2023/10/29 05:48:14;;;;;;;16.93;9.90;;;6.30;99.90;;;;;;4129369;28;20046;-59
2023/10/29 05:50:15;;;;;;;11.40;8.27;;;6.10;99.90;;;;;;4129323;28;20027;-59
2023/10/29 05:52:17;;;;;;;35.47;8.30;;;6.00;99.90;;;;;;4129358;28;20463;-60
2023/10/29 05:54:18;;;;;;;16.23;8.57;;;5.70;99.90;;;;;;4129058;28;20875;-59
2023/10/29 05:56:20;;;;;;;14.73;10.43;;;5.50;99.90;;;;;;4129123;28;20074;-60
2023/10/29 05:58:21;;;;;;;25.20;15.27;;;5.40;99.90;;;;;;4128385;28;21425;-58
2023/10/29 06:00:22;;;;;;;17.23;10.17;;;5.30;99.90;;;;;;4118634;28;20093;-59
2023/10/29 06:02:24;;;;;;;19.17;10.87;;;5.20;99.90;;;;;;4144455;28;20030;-59
2023/10/29 06:04:25;;;;;;;19.10;10.73;;;5.20;99.90;;;;;;4146109;28;20045;-58
2023/10/29 06:06:27;;;;;;;19.30;9.83;;;5.30;99.90;;;;;;4144650;28;20069;-59
2023/10/29 06:08:28;;;;;;;21.93;10.90;;;5.40;99.90;;;;;;4146101;28;20045;-58
2023/10/29 06:10:29;;;;;;;19.60;11.43;;;5.60;99.90;;;;;;4144888;28;20033;-59
2023/10/29 06:12:30;;;;;;;18.00;10.80;;;5.70;99.90;;;;;;4145915;28;20046;-60
2023/10/29 06:14:32;;;;;;;20.07;12.53;;;5.70;99.90;;;;;;4144577;28;20025;-55
2023/10/29 06:16:34;;;;;;;15.80;9.67;;;5.70;99.90;;;;;;4145070;28;20108;-58
2023/10/29 06:18:35;;;;;;;13.87;8.87;;;5.70;99.90;;;;;;4145227;28;20438;-59
2023/10/29 06:20:41;;;;;;;19.87;10.10;;;5.70;99.90;;;;;;4143354;28;20394;-57
2023/10/29 06:22:42;;;;;;;15.80;9.93;;;5.70;99.90;;;;;;4136446;28;20022;-59
2023/10/29 06:24:44;;;;;;;14.37;9.27;;;5.80;99.90;;;;;;4136277;28;20471;-59
2023/10/29 06:26:45;;;;;;;14.97;9.63;;;5.90;99.90;;;;;;4136534;28;20057;-59
2023/10/29 06:28:46;;;;;;;15.00;9.60;;;5.90;99.90;;;;;;4135152;28;20099;-59
2023/10/29 06:30:47;;;;;;;19.07;11.60;;;6.00;99.90;;;;;;4133570;28;20034;-59
2023/10/29 06:32:48;;;;;;;23.87;14.70;;;6.10;99.90;;;;;;4128007;28;20467;-58
2023/10/29 06:34:49;;;;;;;26.60;13.03;;;6.10;99.90;;;;;;4129066;28;20038;-59
2023/10/29 06:36:50;;;;;;;17.97;12.23;;;6.10;99.90;;;;;;4127913;28;20089;-60
2023/10/29 06:38:52;;;;;;;14.73;9.70;;;6.10;99.90;;;;;;4129090;28;20116;-61
2023/10/29 06:40:53;;;;;;;12.53;9.27;;;6.10;99.90;;;;;;4127189;28;20624;-60
2023/10/29 06:42:54;;;;;;;18.53;11.23;;;6.20;99.90;;;;;;4129336;28;20379;-64
2023/10/29 06:44:56;;;;;;;18.43;10.73;;;6.20;99.90;;;;;;4127772;28;20030;-58
2023/10/29 06:46:57;;;;;;;18.63;11.20;;;6.20;99.90;;;;;;4128783;28;20046;-61
2023/10/29 06:48:58;;;;;;;19.43;10.60;;;6.30;99.90;;;;;;4128543;28;20042;-61
2023/10/29 06:50:59;;;;;;;18.53;12.03;;;6.30;99.90;;;;;;4133782;28;20494;-59
2023/10/29 06:53:00;;;;;;;21.03;10.10;;;6.40;99.90;;;;;;4143379;28;20038;-62
2023/10/29 06:55:01;;;;;;;19.03;11.00;;;6.40;99.90;;;;;;4127794;28;20097;-62
2023/10/29 06:57:04;;;;;;;15.40;10.07;;;6.40;99.90;;;;;;4128732;28;20089;-60
2023/10/29 06:59:05;;;;;;;16.23;10.00;;;6.50;99.90;;;;;;4127464;28;20030;-60
2023/10/29 07:01:11;;;;;;;14.53;9.83;;;6.50;99.90;;;;;;4128341;28;20089;-60
2023/10/29 07:03:13;;;;;;;15.37;10.03;;;6.70;99.90;;;;;;4111824;28;20038;-59
2023/10/29 07:05:14;;;;;;;15.73;11.13;;;6.70;99.90;;;;;;4113058;28;20097;-59
2023/10/29 07:07:15;;;;;;;18.07;10.43;;;6.90;99.90;;;;;;4113869;28;20100;-60
2023/10/29 07:09:17;;;;;;;27.23;16.00;;;7.30;99.90;;;;;;4128057;28;20396;-62
2023/10/29 07:11:19;;;;;;;16.37;9.37;;;7.50;99.90;;;;;;4127245;28;20042;-61
2023/10/29 07:13:20;;;;;;;12.10;8.83;;;7.90;99.90;;;;;;4127740;28;20026;-58
2023/10/29 07:15:22;;;;;;;15.53;9.23;;;8.10;99.90;;;;;;4126715;28;20042;-60
2023/10/29 07:17:23;;;;;;;16.03;8.93;;;8.60;99.90;;;;;;4127562;28;20200;-61
2023/10/29 07:19:25;;;;;;;14.47;9.77;;;9.00;99.90;;;;;;4128205;28;20031;-60
2023/10/29 07:21:26;;;;;;;13.90;9.47;;;9.30;99.90;;;;;;4128348;28;20487;-60
2023/10/29 07:23:27;;;;;;;15.33;10.10;;;9.50;99.90;;;;;;4127720;28;20042;-60
2023/10/29 07:25:28;;;;;;;13.23;9.30;;;9.80;99.90;;;;;;4127679;28;20124;-60
2023/10/29 07:27:30;;;;;;;11.73;8.40;;;9.80;99.90;;;;;;4127623;28;20518;-59
2023/10/29 07:29:31;;;;;;;13.80;9.10;;;10.20;99.90;;;;;;4127601;28;20039;-58
2023/10/29 07:31:32;;;;;;;14.67;8.13;;;10.70;99.90;;;;;;4127619;28;20460;-58
2023/10/29 07:33:33;;;;;;;16.40;8.33;;;10.90;99.90;;;;;;4127079;28;20038;-61
2023/10/29 07:35:35;;;;;;;15.43;8.27;;;10.70;99.90;;;;;;4128001;28;20054;-57
2023/10/29 07:37:36;;;;;;;16.77;8.60;;;10.60;99.90;;;;;;4127030;28;20440;-59
2023/10/29 07:39:38;;;;;;;12.10;8.20;;;10.70;99.90;;;;;;4128432;28;20057;-60
2023/10/29 07:41:39;;;;;;;13.87;8.07;;;10.70;99.90;;;;;;4127575;28;20050;-59
2023/10/29 07:43:40;;;;;;;11.37;7.93;;;10.80;99.90;;;;;;4128222;28;20089;-62
2023/10/29 07:45:41;;;;;;;12.50;8.00;;;10.90;99.90;;;;;;4127391;28;20038;-56
2023/10/29 07:47:42;;;;;;;17.20;9.30;;;11.00;99.90;;;;;;4127399;28;20450;-51
2023/10/29 07:49:43;;;;;;;21.80;8.20;;;11.10;99.90;;;;;;4127814;28;20068;-59
2023/10/29 07:51:44;;;;;;;16.23;8.60;;;11.10;99.90;;;;;;4128010;28;20043;-56
2023/10/29 07:53:46;;;;;;;14.63;8.23;;;11.30;99.90;;;;;;4127532;28;20031;-56
2023/10/29 07:55:47;;;;;;;18.77;8.77;;;11.50;99.90;;;;;;4127265;28;20026;-55
2023/10/29 07:57:48;;;;;;;11.97;7.17;;;11.60;99.90;;;;;;4123399;28;20441;-55
2023/10/29 07:59:49;;;;;;;16.93;8.60;;;11.70;99.90;;;;;;4127343;28;20081;-54
2023/10/29 08:01:50;;;;;;;14.37;8.37;;;11.80;99.90;;;;;;4127770;28;20050;-56
2023/10/29 08:03:52;;;;;;;11.93;7.50;;;11.80;99.90;;;;;;4143159;28;20379;-56
2023/10/29 08:05:54;;;;;;;10.47;7.30;;;11.60;99.90;;;;;;4143186;28;20170;-58
2023/10/29 08:07:56;;;;;;;11.33;7.77;;;11.70;99.90;;;;;;4143355;28;20379;-63
2023/10/29 08:09:57;;;;;;;11.83;7.67;;;11.60;99.90;;;;;;4144095;28;20084;-60
2023/10/29 08:11:59;;;;;;;14.97;9.10;;;11.50;99.90;;;;;;4143094;28;20026;-60
2023/10/29 08:14:00;;;;;;;13.53;8.10;;;11.40;99.90;;;;;;4144827;28;20824;-57
2023/10/29 08:16:03;;;;;;;12.83;8.70;;;11.40;99.90;;;;;;4126480;28;20748;-60
2023/10/29 08:18:04;;;;;;;13.60;8.80;;;11.50;99.90;;;;;;4127850;28;20101;-58
2023/10/29 08:20:06;;;;;;;17.23;9.07;;;11.50;99.90;;;;;;4129241;28;20026;-58
2023/10/29 08:22:07;;;;;;;11.63;8.60;;;11.50;99.90;;;;;;4130795;28;20058;-62
2023/10/29 08:24:08;;;;;;;14.47;8.80;;;11.70;99.90;;;;;;4130321;28;20085;-58
2023/10/29 08:26:10;;;;;;;13.60;8.97;;;11.80;99.90;;;;;;4130760;28;20049;-57
2023/10/29 08:28:11;;;;;;;11.70;9.27;;;11.90;99.90;;;;;;4130742;28;20490;-57
2023/10/29 08:30:12;;;;;;;13.30;9.83;;;11.70;99.90;;;;;;4129826;28;20434;-58
2023/10/29 08:32:13;;;;;;;15.37;9.57;;;11.70;99.90;;;;;;4130326;28;20030;-57
2023/10/29 08:34:15;;;;;;;22.43;11.07;;;11.70;99.90;;;;;;4129373;28;20081;-60
2023/10/29 08:36:17;;;;;;;14.90;10.43;;;11.60;99.90;;;;;;4130454;28;20042;-59
2023/10/29 08:38:19;;;;;;;11.67;8.40;;;11.70;99.90;;;;;;4129379;28;20092;-59
2023/10/29 08:40:20;;;;;;;12.50;9.40;;;11.70;99.90;;;;;;4130983;28;20054;-58
2023/10/29 08:42:21;;;;;;;13.07;9.07;;;11.70;99.90;;;;;;4129792;28;20104;-58
2023/10/29 08:44:22;;;;;;;12.33;8.63;;;11.80;99.90;;;;;;4130499;28;20113;-61
2023/10/29 08:46:23;;;;;;;14.70;8.33;;;12.00;99.90;;;;;;4128893;28;20038;-55
2023/10/29 08:48:25;;;;;;;14.33;7.90;;;12.10;99.90;;;;;;4128212;28;20065;-57
2023/10/29 08:50:28;;;;;;;11.63;8.67;;;12.30;99.90;;;;;;4129924;28;20026;-56
2023/10/29 08:52:29;;;;;;;15.97;8.40;;;12.60;99.90;;;;;;4135033;28;20505;-59
2023/10/29 08:54:30;;;;;;;9.83;7.37;;;12.90;99.90;;;;;;4145743;28;20080;-59
2023/10/29 08:56:35;;;;;;;10.27;7.07;;;13.00;99.90;;;;;;4146183;28;20050;-59
2023/10/29 08:58:37;;;;;;;13.63;7.60;;;12.90;99.90;;;;;;4145632;28;20026;-57
2023/10/29 09:00:40;;;;;;;9.17;7.17;;;13.00;99.90;;;;;;4137730;28;21038;-60
2023/10/29 09:02:41;;;;;;;9.13;6.80;;;13.10;99.90;;;;;;4145954;28;20033;-59
2023/10/29 09:04:42;;;;;;;9.40;6.87;;;13.20;99.90;;;;;;4145681;28;20046;-59
2023/10/29 09:06:43;;;;;;;7.90;6.70;;;13.40;99.90;;;;;;4146364;28;20084;-56
2023/10/29 09:08:44;;;;;;;8.03;6.73;;;13.50;99.90;;;;;;4144992;28;20026;-56
2023/10/29 09:10:46;;;;;;;8.07;6.50;;;13.80;99.90;;;;;;4146193;28;20079;-60
2023/10/29 09:12:47;;;;;;;11.17;6.10;;;14.00;99.90;;;;;;4144763;28;20034;-61
2023/10/29 09:14:48;;;;;;;9.07;5.50;;;14.20;99.90;;;;;;4146111;28;20129;-60
2023/10/29 09:16:49;;;;;;;8.70;6.20;;;14.40;99.90;;;;;;4144526;28;20438;-59
2023/10/29 09:18:50;;;;;;;6.87;4.33;;;14.50;99.90;;;;;;4146324;28;20038;-58
2023/10/29 09:20:52;;;;;;;7.83;4.53;;;14.70;99.90;;;;;;4142830;28;20046;-60
2023/10/29 09:22:53;;;;;;;8.10;4.53;;;14.90;99.90;;;;;;4137421;28;20038;-61
2023/10/29 09:24:54;;;;;;;6.70;4.10;;;14.90;99.90;;;;;;4136350;28;20018;-58
2023/10/29 09:26:56;;;;;;;7.30;4.00;;;14.90;99.90;;;;;;4137032;28;20037;-60
2023/10/29 09:28:57;;;;;;;9.88;4.28;;;15.00;99.90;;;;;;4136341;28;20045;-60
2023/10/29 09:30:58;;;;;;;6.15;3.47;;;15.20;99.90;;;;;;4135631;28;20030;-65
2023/10/29 09:32:59;;;;;;;6.68;3.55;;;15.30;99.90;;;;;;4136415;28;20038;-62
2023/10/29 09:35:04;;;;;;;6.70;3.83;;;15.40;99.90;;;;;;4139796;28;20049;-61
2023/10/29 09:37:05;;;;;;;7.78;3.70;;;15.60;99.90;;;;;;4145519;28;20030;-59
2023/10/29 09:39:08;;;;;;;6.70;3.50;;;15.70;99.90;;;;;;4144673;28;20470;-60
2023/10/29 09:41:09;;;;;;;5.72;3.85;;;15.80;99.90;;;;;;4145667;28;20030;-62
2023/10/29 09:43:12;;;;;;;10.40;4.57;;;15.90;99.90;;;;;;4144762;28;20061;-60
2023/10/29 09:45:17;;;;;;;6.65;2.85;;;15.90;99.90;;;;;;4145496;28;20561;-60
2023/10/29 09:47:20;;;;;;;7.72;3.50;;;16.10;99.90;;;;;;4144357;28;20100;-64
2023/10/29 09:49:21;;;;;;;8.02;3.17;;;16.20;99.90;;;;;;4145999;28;20064;-61
2023/10/29 09:51:22;;;;;;;5.90;3.42;;;16.20;99.90;;;;;;4137794;28;20030;-65
2023/10/29 09:53:24;;;;;;;6.28;3.38;;;16.20;99.90;;;;;;4129778;28;20043;-62
2023/10/29 09:55:26;;;;;;;6.28;3.55;;;16.30;99.90;;;;;;4128624;28;20438;-66
2023/10/29 09:57:27;;;;;;;6.65;3.33;;;16.40;99.90;;;;;;4129730;28;20479;-62
2023/10/29 09:59:29;;;;;;;6.05;3.72;;;16.50;99.90;;;;;;4128447;28;20034;-60
2023/10/29 10:01:30;;;;;;;6.57;4.47;;;16.50;99.90;;;;;;4128584;28;20038;-60
2023/10/29 10:03:32;;;;;;;9.35;4.15;;;16.40;99.90;;;;;;4128632;28;20057;-60
2023/10/29 10:05:34;;;;;;;6.10;3.92;;;16.30;99.90;;;;;;4128472;28;20022;-61
2023/10/29 10:07:35;;;;;;;7.43;3.80;;;16.40;99.90;;;;;;4129065;28;20960;-60
2023/10/29 10:09:55;;;;;;;4.90;3.22;;;16.50;99.90;;;;;;4140573;28;20481;-58
2023/10/29 10:12:04;;;;;;;9.35;3.40;;;16.60;99.90;;;;;;4144985;28;20379;-61
2023/10/29 10:14:05;;;;;;;8.95;3.40;;;16.70;99.90;;;;;;4144285;28;20461;-63
2023/10/29 10:16:12;;;;;;;6.32;3.33;;;16.80;99.90;;;;;;4144568;28;20445;-61
2023/10/29 10:18:14;;;;;;;5.78;3.47;;;16.90;99.90;;;;;;4144253;28;20037;-62
2023/10/29 10:20:21;;;;;;;11.27;4.22;;;17.00;99.90;;;;;;4145281;28;20455;-64
2023/10/29 10:22:37;;;;;;;5.30;3.13;;;17.10;99.90;;;;;;4143829;28;20115;-60
2023/10/29 10:24:43;;;;;;;9.55;3.75;;;17.20;99.90;;;;;;4140822;28;20076;-58
2023/10/29 10:26:44;;;;;;;6.60;3.25;;;17.30;99.90;;;;;;4128273;28;20042;-62
2023/10/29 10:28:53;;;;;;;8.15;3.80;;;17.40;99.90;;;;;;4129001;28;20356;-63